sensor_id;sensor_type;location;lat;lon;timestamp;pressure;altitude;pressure_sealevel;temperature;humidity
55757;BME280;41676;44.610;44.078;2023-01-27T00:02:24;101390.53;;;-2.82;90.25
55757;BME280;41676;44.610;44.078;2023-01-27T00:07:25;101460.66;;;-2.34;89.83
55757;BME280;41676;44.610;44.078;2023-01-27T00:12:26;101361.78;;;-2.79;90.06
55757;BME280;41676;44.610;44.078;2023-01-27T00:17:45;101386.34;;;-2.63;90.41
55757;BME280;41676;44.610;44.078;2023-01-27T00:22:45;101408.38;;;-2.49;90.63
55757;BME280;41676;44.610;44.078;2023-01-27T00:28:05;101382.88;;;-2.63;91.00
55757;BME280;41676;44.610;44.078;2023-01-27T00:33:07;101460.22;;;-2.21;90.60
55757;BME280;41676;44.610;44.078;2023-01-27T00:38:32;101371.47;;;-2.83;91.42
55757;BME280;41676;44.610;44.078;2023-01-27T00:43:33;101419.97;;;-2.58;90.94
55757;BME280;41676;44.610;44.078;2023-01-27T00:48:35;101480.53;;;-2.31;91.87
55757;BME280;41676;44.610;44.078;2023-01-27T00:53:35;101478.34;;;-2.42;91.51
55757;BME280;41676;44.610;44.078;2023-01-27T00:58:36;101488.56;;;-2.37;91.78
55757;BME280;41676;44.610;44.078;2023-01-27T01:03:37;101461.22;;;-2.47;92.31
55757;BME280;41676;44.610;44.078;2023-01-27T01:08:38;101407.91;;;-2.84;92.35
55757;BME280;41676;44.610;44.078;2023-01-27T01:13:40;101434.97;;;-2.65;92.06
55757;BME280;41676;44.610;44.078;2023-01-27T01:18:42;101384.44;;;-3.05;92.00
55757;BME280;41676;44.610;44.078;2023-01-27T01:23:44;101441.00;;;-2.64;92.44
55757;BME280;41676;44.610;44.078;2023-01-27T01:28:45;101340.72;;;-3.18;92.44
55757;BME280;41676;44.610;44.078;2023-01-27T01:33:47;101461.56;;;-2.57;92.40
55757;BME280;41676;44.610;44.078;2023-01-27T01:38:48;101407.03;;;-2.83;92.24
55757;BME280;41676;44.610;44.078;2023-01-27T01:43:49;101463.81;;;-2.47;92.82
55757;BME280;41676;44.610;44.078;2023-01-27T01:49:00;101454.97;;;-2.43;93.16
55757;BME280;41676;44.610;44.078;2023-01-27T01:59:08;101384.59;;;-2.86;92.28
55757;BME280;41676;44.610;44.078;2023-01-27T02:04:17;101417.25;;;-2.55;92.56
55757;BME280;41676;44.610;44.078;2023-01-27T02:09:19;101388.50;;;-2.74;92.47
55757;BME280;41676;44.610;44.078;2023-01-27T02:14:21;101399.13;;;-2.57;92.52
55757;BME280;41676;44.610;44.078;2023-01-27T02:24:44;101410.13;;;-2.50;92.76
55757;BME280;41676;44.610;44.078;2023-01-27T02:29:46;101354.06;;;-2.81;92.12
55757;BME280;41676;44.610;44.078;2023-01-27T02:34:47;101375.19;;;-2.66;92.60
55757;BME280;41676;44.610;44.078;2023-01-27T02:39:49;101303.03;;;-3.07;92.74
55757;BME280;41676;44.610;44.078;2023-01-27T02:44:51;101423.63;;;-2.40;92.50
55757;BME280;41676;44.610;44.078;2023-01-27T02:49:52;101400.53;;;-2.48;92.35
55757;BME280;41676;44.610;44.078;2023-01-27T02:54:53;101427.84;;;-2.36;92.19
55757;BME280;41676;44.610;44.078;2023-01-27T02:59:54;101314.16;;;-3.03;92.14
55757;BME280;41676;44.610;44.078;2023-01-27T03:04:56;101451.66;;;-2.25;92.70
55757;BME280;41676;44.610;44.078;2023-01-27T03:09:57;101319.38;;;-3.03;92.62
55757;BME280;41676;44.610;44.078;2023-01-27T03:14:58;101342.06;;;-2.85;92.63
55757;BME280;41676;44.610;44.078;2023-01-27T03:20:17;101369.25;;;-2.70;92.16
55757;BME280;41676;44.610;44.078;2023-01-27T03:25:17;101363.91;;;-2.89;92.04
55757;BME280;41676;44.610;44.078;2023-01-27T03:30:18;101357.66;;;-2.85;92.76
55757;BME280;41676;44.610;44.078;2023-01-27T03:35:20;101453.44;;;-2.25;92.80
55757;BME280;41676;44.610;44.078;2023-01-27T03:40:22;101411.19;;;-2.56;92.74
55757;BME280;41676;44.610;44.078;2023-01-27T03:45:46;101413.19;;;-2.39;92.59
55757;BME280;41676;44.610;44.078;2023-01-27T03:51:07;101454.81;;;-2.17;92.92
55757;BME280;41676;44.610;44.078;2023-01-27T03:56:08;101391.91;;;-2.50;92.76
55757;BME280;41676;44.610;44.078;2023-01-27T04:01:18;101378.06;;;-2.50;93.05
55757;BME280;41676;44.610;44.078;2023-01-27T04:06:22;101455.19;;;-2.04;93.46
55757;BME280;41676;44.610;44.078;2023-01-27T04:11:42;101424.91;;;-2.28;92.72
55757;BME280;41676;44.610;44.078;2023-01-27T04:17:00;101439.94;;;-2.13;93.10
55757;BME280;41676;44.610;44.078;2023-01-27T04:22:02;101450.94;;;-2.07;92.64
55757;BME280;41676;44.610;44.078;2023-01-27T04:27:09;101434.84;;;-2.16;92.99
55757;BME280;41676;44.610;44.078;2023-01-27T04:32:11;101434.81;;;-2.15;93.22
55757;BME280;41676;44.610;44.078;2023-01-27T04:37:12;101335.41;;;-2.68;93.17
55757;BME280;41676;44.610;44.078;2023-01-27T04:42:13;101437.09;;;-2.07;93.10
55757;BME280;41676;44.610;44.078;2023-01-27T04:47:14;101430.44;;;-2.14;92.71
55757;BME280;41676;44.610;44.078;2023-01-27T04:52:15;101390.53;;;-2.37;92.96
55757;BME280;41676;44.610;44.078;2023-01-27T04:57:15;101476.09;;;-1.84;92.77
55757;BME280;41676;44.610;44.078;2023-01-27T05:02:16;101378.56;;;-2.41;92.72
55757;BME280;41676;44.610;44.078;2023-01-27T05:07:17;101464.59;;;-1.78;92.94
55757;BME280;41676;44.610;44.078;2023-01-27T05:12:17;101453.38;;;-1.80;92.31
55757;BME280;41676;44.610;44.078;2023-01-27T05:17:18;101446.09;;;-1.72;92.23
55757;BME280;41676;44.610;44.078;2023-01-27T05:22:19;101473.84;;;-1.49;92.66
55757;BME280;41676;44.610;44.078;2023-01-27T05:27:20;101465.75;;;-1.43;92.04
55757;BME280;41676;44.610;44.078;2023-01-27T05:32:21;101409.84;;;-1.76;92.04
55757;BME280;41676;44.610;44.078;2023-01-27T05:37:21;101396.72;;;-1.75;91.62
55757;BME280;41676;44.610;44.078;2023-01-27T05:42:22;101435.28;;;-1.41;91.52
55757;BME280;41676;44.610;44.078;2023-01-27T05:47:24;101414.06;;;-1.53;92.01
55757;BME280;41676;44.610;44.078;2023-01-27T05:52:25;101473.13;;;-1.11;91.77
55757;BME280;41676;44.610;44.078;2023-01-27T05:57:26;101383.84;;;-1.57;91.37
55757;BME280;41676;44.610;44.078;2023-01-27T06:02:26;101467.66;;;-1.05;90.99
55757;BME280;41676;44.610;44.078;2023-01-27T06:07:27;101473.91;;;-1.09;91.90
55757;BME280;41676;44.610;44.078;2023-01-27T06:12:28;101407.97;;;-1.52;91.36
55757;BME280;41676;44.610;44.078;2023-01-27T06:17:28;101456.19;;;-1.42;91.27
55757;BME280;41676;44.610;44.078;2023-01-27T06:22:29;101278.13;;;-2.45;91.78
55757;BME280;41676;44.610;44.078;2023-01-27T06:27:30;101435.91;;;-1.56;91.76
55757;BME280;41676;44.610;44.078;2023-01-27T06:32:31;101378.47;;;-1.95;92.00
55757;BME280;41676;44.610;44.078;2023-01-27T06:37:31;101357.31;;;-2.08;91.86
55757;BME280;41676;44.610;44.078;2023-01-27T06:42:32;101449.78;;;-1.55;91.58
55757;BME280;41676;44.610;44.078;2023-01-27T06:47:33;101415.91;;;-1.76;92.11
55757;BME280;41676;44.610;44.078;2023-01-27T06:52:34;101442.09;;;-1.58;91.89
55757;BME280;41676;44.610;44.078;2023-01-27T06:57:34;101398.53;;;-1.77;92.21
55757;BME280;41676;44.610;44.078;2023-01-27T07:02:35;101328.38;;;-2.22;91.70
55757;BME280;41676;44.610;44.078;2023-01-27T07:07:36;101438.63;;;-1.59;91.69
55757;BME280;41676;44.610;44.078;2023-01-27T07:12:37;101384.13;;;-1.86;91.10
55757;BME280;41676;44.610;44.078;2023-01-27T07:17:39;101401.81;;;-1.72;90.81
55757;BME280;41676;44.610;44.078;2023-01-27T07:22:39;101423.00;;;-1.59;90.20
55757;BME280;41676;44.610;44.078;2023-01-27T07:27:40;101402.28;;;-1.62;90.50
55757;BME280;41676;44.610;44.078;2023-01-27T07:32:41;101394.19;;;-1.56;90.34
55757;BME280;41676;44.610;44.078;2023-01-27T07:37:41;101407.91;;;-1.30;90.25
55757;BME280;41676;44.610;44.078;2023-01-27T07:42:42;101389.25;;;-1.21;89.96
55757;BME280;41676;44.610;44.078;2023-01-27T07:47:43;101392.63;;;-0.99;89.18
55757;BME280;41676;44.610;44.078;2023-01-27T07:52:44;101335.47;;;-1.24;88.48
55757;BME280;41676;44.610;44.078;2023-01-27T07:57:44;101379.44;;;-0.77;88.86
55757;BME280;41676;44.610;44.078;2023-01-27T08:02:49;101344.84;;;-0.80;88.03
55757;BME280;41676;44.610;44.078;2023-01-27T08:07:51;101356.94;;;-0.60;88.20
55757;BME280;41676;44.610;44.078;2023-01-27T08:12:52;101340.28;;;-0.58;87.97
55757;BME280;41676;44.610;44.078;2023-01-27T08:17:54;101345.84;;;-0.47;87.36
55757;BME280;41676;44.610;44.078;2023-01-27T08:22:55;101288.53;;;-0.67;86.69
55757;BME280;41676;44.610;44.078;2023-01-27T08:27:56;101340.59;;;-0.28;86.62
55757;BME280;41676;44.610;44.078;2023-01-27T08:32:57;101318.94;;;-0.12;86.21
55757;BME280;41676;44.610;44.078;2023-01-27T08:37:58;101299.09;;;-0.15;85.40
55757;BME280;41676;44.610;44.078;2023-01-27T08:42:58;101190.22;;;-0.66;85.20
55757;BME280;41676;44.610;44.078;2023-01-27T08:48:02;101249.00;;;-0.06;85.17
55757;BME280;41676;44.610;44.078;2023-01-27T08:53:03;101233.47;;;-0.09;84.72
55757;BME280;41676;44.610;44.078;2023-01-27T08:58:04;101289.88;;;0.46;84.88
55757;BME280;41676;44.610;44.078;2023-01-27T09:03:05;101226.41;;;0.27;84.16
55757;BME280;41676;44.610;44.078;2023-01-27T09:08:06;101258.53;;;0.62;83.89
55757;BME280;41676;44.610;44.078;2023-01-27T09:13:08;101207.00;;;0.48;82.64
55757;BME280;41676;44.610;44.078;2023-01-27T09:18:09;101233.00;;;0.83;82.54
55757;BME280;41676;44.610;44.078;2023-01-27T09:23:10;101141.72;;;0.47;81.88
55757;BME280;41676;44.610;44.078;2023-01-27T09:28:11;101213.09;;;1.12;81.46
55757;BME280;41676;44.610;44.078;2023-01-27T09:33:16;101176.00;;;1.20;81.37
55757;BME280;41676;44.610;44.078;2023-01-27T09:38:19;101181.63;;;1.44;81.11
55757;BME280;41676;44.610;44.078;2023-01-27T09:43:37;101194.72;;;1.44;80.72
55757;BME280;41676;44.610;44.078;2023-01-27T09:54:39;101189.69;;;1.55;80.62
55757;BME280;41676;44.610;44.078;2023-01-27T10:05:22;101170.84;;;1.78;80.18
55757;BME280;41676;44.610;44.078;2023-01-27T10:20:34;101123.84;;;1.61;80.11
55757;BME280;41676;44.610;44.078;2023-01-27T10:25:50;101053.69;;;1.23;79.82
55757;BME280;41676;44.610;44.078;2023-01-27T10:36:16;101180.22;;;1.82;79.73
55757;BME280;41676;44.610;44.078;2023-01-27T10:52:18;101178.25;;;1.42;80.52
55757;BME280;41676;44.610;44.078;2023-01-27T10:57:24;101175.56;;;1.27;80.30
55757;BME280;41676;44.610;44.078;2023-01-27T11:08:05;101131.28;;;0.78;80.22
55757;BME280;41676;44.610;44.078;2023-01-27T11:13:09;101138.09;;;0.81;80.67
55757;BME280;41676;44.610;44.078;2023-01-27T11:18:24;101181.03;;;0.93;80.41
55757;BME280;41676;44.610;44.078;2023-01-27T11:23:30;101133.22;;;0.59;79.93
55757;BME280;41676;44.610;44.078;2023-01-27T11:38:57;101169.09;;;1.19;79.64
55757;BME280;41676;44.610;44.078;2023-01-27T11:44:05;101084.19;;;0.78;79.14
55757;BME280;41676;44.610;44.078;2023-01-27T11:49:08;101161.78;;;1.40;79.00
55757;BME280;41676;44.610;44.078;2023-01-27T11:54:22;101178.84;;;1.47;79.27
55757;BME280;41676;44.610;44.078;2023-01-27T11:59:28;101163.50;;;1.55;79.12
55757;BME280;41676;44.610;44.078;2023-01-27T12:04:49;101076.13;;;1.27;78.80
55757;BME280;41676;44.610;44.078;2023-01-27T12:09:52;101126.69;;;1.72;78.56
55757;BME280;41676;44.610;44.078;2023-01-27T12:14:58;101165.84;;;2.04;78.09
55757;BME280;41676;44.610;44.078;2023-01-27T12:20:03;101153.94;;;2.13;77.87
55757;BME280;41676;44.610;44.078;2023-01-27T12:25:13;101134.84;;;2.11;77.67
55757;BME280;41676;44.610;44.078;2023-01-27T12:30:21;101113.31;;;1.91;77.73
55757;BME280;41676;44.610;44.078;2023-01-27T12:35:31;101091.31;;;2.08;77.75
55757;BME280;41676;44.610;44.078;2023-01-27T12:40:33;101078.56;;;2.31;76.88
55757;BME280;41676;44.610;44.078;2023-01-27T12:45:34;101037.03;;;2.10;76.03
55757;BME280;41676;44.610;44.078;2023-01-27T12:55:43;101120.78;;;2.26;76.65
55757;BME280;41676;44.610;44.078;2023-01-27T13:00:45;101129.16;;;2.04;77.71
55757;BME280;41676;44.610;44.078;2023-01-27T13:05:46;101149.63;;;1.97;78.14
55757;BME280;41676;44.610;44.078;2023-01-27T13:10:57;101106.66;;;1.57;78.31
55757;BME280;41676;44.610;44.078;2023-01-27T13:16:15;101136.41;;;1.70;78.53
55757;BME280;41676;44.610;44.078;2023-01-27T13:21:18;101131.34;;;1.53;78.60
55757;BME280;41676;44.610;44.078;2023-01-27T13:26:27;101117.75;;;1.46;79.13
55757;BME280;41676;44.610;44.078;2023-01-27T13:41:45;101111.81;;;1.28;79.44
55757;BME280;41676;44.610;44.078;2023-01-27T13:46:49;101103.44;;;1.07;79.54
55757;BME280;41676;44.610;44.078;2023-01-27T13:51:50;101122.97;;;1.02;80.25
55757;BME280;41676;44.610;44.078;2023-01-27T14:07:57;101118.63;;;0.55;80.44
55757;BME280;41676;44.610;44.078;2023-01-27T14:18:20;101121.19;;;0.07;81.13
55757;BME280;41676;44.610;44.078;2023-01-27T14:23:43;101109.97;;;-0.11;81.04
55757;BME280;41676;44.610;44.078;2023-01-27T14:34:34;101113.50;;;-0.62;82.15
55757;BME280;41676;44.610;44.078;2023-01-27T14:55:57;100964.69;;;-1.64;82.47
55757;BME280;41676;44.610;44.078;2023-01-27T15:06:48;101099.75;;;-0.83;83.28
55757;BME280;41676;44.610;44.078;2023-01-27T15:22:45;101130.94;;;-1.17;82.45
55757;BME280;41676;44.610;44.078;2023-01-27T15:27:50;101102.22;;;-1.53;82.75
55757;BME280;41676;44.610;44.078;2023-01-27T15:32:53;101102.03;;;-1.48;82.89
55757;BME280;41676;44.610;44.078;2023-01-27T15:48:09;101129.97;;;-0.79;82.34
55757;BME280;41676;44.610;44.078;2023-01-27T15:53:27;101123.97;;;-0.81;83.01
55757;BME280;41676;44.610;44.078;2023-01-27T15:58:33;101128.13;;;-0.95;82.79
55757;BME280;41676;44.610;44.078;2023-01-27T16:03:37;101134.09;;;-1.10;82.47
55757;BME280;41676;44.610;44.078;2023-01-27T16:13:51;101101.34;;;-1.52;83.22
55757;BME280;41676;44.610;44.078;2023-01-27T16:18:54;101125.81;;;-1.56;83.23
55757;BME280;41676;44.610;44.078;2023-01-27T16:24:00;101115.13;;;-1.69;83.80
55757;BME280;41676;44.610;44.078;2023-01-27T16:34:28;101105.75;;;-1.54;83.44
55757;BME280;41676;44.610;44.078;2023-01-27T16:39:41;101120.19;;;-1.28;83.40
55757;BME280;41676;44.610;44.078;2023-01-27T16:44:47;101096.31;;;-1.38;83.23
55757;BME280;41676;44.610;44.078;2023-01-27T16:49:51;101086.44;;;-1.50;83.00
55757;BME280;41676;44.610;44.078;2023-01-27T16:54:53;101086.41;;;-1.67;83.26
55757;BME280;41676;44.610;44.078;2023-01-27T16:59:56;100953.13;;;-2.70;83.80
55757;BME280;41676;44.610;44.078;2023-01-27T17:04:59;101095.00;;;-1.84;83.89
55757;BME280;41676;44.610;44.078;2023-01-27T17:10:11;101022.13;;;-2.42;84.88
55757;BME280;41676;44.610;44.078;2023-01-27T17:15:28;101096.91;;;-1.88;84.70
55757;BME280;41676;44.610;44.078;2023-01-27T17:20:31;101008.41;;;-2.46;84.16
55757;BME280;41676;44.610;44.078;2023-01-27T17:25:37;101100.22;;;-2.03;84.42
55757;BME280;41676;44.610;44.078;2023-01-27T17:30:40;101053.56;;;-2.47;83.95
55757;BME280;41676;44.610;44.078;2023-01-27T17:35:41;101010.56;;;-2.74;84.10
55757;BME280;41676;44.610;44.078;2023-01-27T17:40:50;101050.19;;;-2.49;84.53
55757;BME280;41676;44.610;44.078;2023-01-27T17:46:10;101068.72;;;-2.36;84.37
55757;BME280;41676;44.610;44.078;2023-01-27T17:51:13;100970.75;;;-3.16;84.65
55757;BME280;41676;44.610;44.078;2023-01-27T17:56:26;101032.78;;;-2.88;85.32
55757;BME280;41676;44.610;44.078;2023-01-27T18:01:28;100954.84;;;-3.29;85.01
55757;BME280;41676;44.610;44.078;2023-01-27T18:06:29;101034.09;;;-2.78;86.09
55757;BME280;41676;44.610;44.078;2023-01-27T18:11:31;100991.06;;;-3.05;85.63
55757;BME280;41676;44.610;44.078;2023-01-27T18:16:33;100986.13;;;-2.91;85.95
55757;BME280;41676;44.610;44.078;2023-01-27T18:21:34;101019.00;;;-2.69;86.41
55757;BME280;41676;44.610;44.078;2023-01-27T18:31:44;100991.56;;;-2.77;87.27
55757;BME280;41676;44.610;44.078;2023-01-27T18:36:55;100981.03;;;-2.73;87.54
55757;BME280;41676;44.610;44.078;2023-01-27T18:41:56;100967.09;;;-2.91;87.20
55757;BME280;41676;44.610;44.078;2023-01-27T18:47:18;100967.72;;;-2.86;88.28
55757;BME280;41676;44.610;44.078;2023-01-27T18:52:21;100984.69;;;-2.78;87.65
55757;BME280;41676;44.610;44.078;2023-01-27T18:57:22;100892.00;;;-3.18;87.87
55757;BME280;41676;44.610;44.078;2023-01-27T19:02:24;100937.06;;;-2.78;88.09
55757;BME280;41676;44.610;44.078;2023-01-27T19:07:25;100998.31;;;-2.33;88.62
55757;BME280;41676;44.610;44.078;2023-01-27T19:12:26;100977.66;;;-2.36;88.40
55757;BME280;41676;44.610;44.078;2023-01-27T19:17:26;100977.56;;;-2.16;88.69
55757;BME280;41676;44.610;44.078;2023-01-27T19:22:28;100900.34;;;-2.53;88.71
55757;BME280;41676;44.610;44.078;2023-01-27T19:27:29;100850.03;;;-2.71;88.75
55757;BME280;41676;44.610;44.078;2023-01-27T19:32:30;100956.44;;;-1.91;88.95
55757;BME280;41676;44.610;44.078;2023-01-27T19:37:31;100803.44;;;-2.76;89.47
55757;BME280;41676;44.610;44.078;2023-01-27T19:42:32;100925.25;;;-1.92;89.46
55757;BME280;41676;44.610;44.078;2023-01-27T19:47:33;100969.50;;;-1.56;90.15
55757;BME280;41676;44.610;44.078;2023-01-27T19:52:34;100915.78;;;-1.76;89.22
55757;BME280;41676;44.610;44.078;2023-01-27T19:57:35;100971.38;;;-1.41;90.33
55757;BME280;41676;44.610;44.078;2023-01-27T20:02:36;100956.16;;;-1.32;90.06
55757;BME280;41676;44.610;44.078;2023-01-27T20:07:37;100865.06;;;-1.69;90.35
55757;BME280;41676;44.610;44.078;2023-01-27T20:12:38;100941.97;;;-1.09;90.49
55757;BME280;41676;44.610;44.078;2023-01-27T20:17:39;100772.19;;;-2.03;90.40
55757;BME280;41676;44.610;44.078;2023-01-27T20:22:39;100917.06;;;-1.15;90.45
55757;BME280;41676;44.610;44.078;2023-01-27T20:27:41;100933.91;;;-1.05;90.45
55757;BME280;41676;44.610;44.078;2023-01-27T20:32:43;100931.59;;;-0.94;91.31
55757;BME280;41676;44.610;44.078;2023-01-27T20:37:48;100908.53;;;-1.01;92.66
55757;BME280;41676;44.610;44.078;2023-01-27T20:42:50;100948.22;;;-0.79;92.05
55757;BME280;41676;44.610;44.078;2023-01-27T20:47:52;100940.22;;;-0.76;92.33
55757;BME280;41676;44.610;44.078;2023-01-27T20:52:53;100936.53;;;-0.72;92.38
55757;BME280;41676;44.610;44.078;2023-01-27T20:57:54;100765.25;;;-1.69;91.83
55757;BME280;41676;44.610;44.078;2023-01-27T21:02:55;100873.72;;;-1.00;92.39
55757;BME280;41676;44.610;44.078;2023-01-27T21:07:57;100917.94;;;-0.65;92.83
55757;BME280;41676;44.610;44.078;2023-01-27T21:12:57;100896.63;;;-0.74;92.97
55757;BME280;41676;44.610;44.078;2023-01-27T21:17:58;100922.50;;;-0.53;92.92
55757;BME280;41676;44.610;44.078;2023-01-27T21:22:59;100905.91;;;-0.52;92.86
55757;BME280;41676;44.610;44.078;2023-01-27T21:28:00;100847.63;;;-0.84;93.07
55757;BME280;41676;44.610;44.078;2023-01-27T21:33:01;100862.28;;;-0.66;93.77
55757;BME280;41676;44.610;44.078;2023-01-27T21:38:01;100860.63;;;-0.67;92.98
55757;BME280;41676;44.610;44.078;2023-01-27T21:43:02;100879.75;;;-0.51;92.85
55757;BME280;41676;44.610;44.078;2023-01-27T21:48:22;100870.47;;;-0.56;93.09
55757;BME280;41676;44.610;44.078;2023-01-27T21:53:22;100822.50;;;-0.85;93.29
55757;BME280;41676;44.610;44.078;2023-01-27T21:58:23;100811.56;;;-0.92;93.62
55757;BME280;41676;44.610;44.078;2023-01-27T22:03:24;100826.44;;;-0.78;93.30
55757;BME280;41676;44.610;44.078;2023-01-27T22:08:25;100832.53;;;-0.78;94.39
55757;BME280;41676;44.610;44.078;2023-01-27T22:13:26;100876.88;;;-0.46;94.70
55757;BME280;41676;44.610;44.078;2023-01-27T22:18:27;100884.03;;;-0.50;94.44
55757;BME280;41676;44.610;44.078;2023-01-27T22:23:28;100854.06;;;-0.58;95.18
55757;BME280;41676;44.610;44.078;2023-01-27T22:28:28;100742.78;;;-1.23;95.01
55757;BME280;41676;44.610;44.078;2023-01-27T22:33:29;100848.59;;;-0.54;95.57
55757;BME280;41676;44.610;44.078;2023-01-27T22:38:36;100856.00;;;-0.46;96.19
55757;BME280;41676;44.610;44.078;2023-01-27T22:43:36;100818.09;;;-0.69;95.42
55757;BME280;41676;44.610;44.078;2023-01-27T22:48:37;100787.66;;;-0.84;95.92
55757;BME280;41676;44.610;44.078;2023-01-27T22:53:38;100683.28;;;-1.46;97.44
55757;BME280;41676;44.610;44.078;2023-01-27T22:58:39;100792.34;;;-0.75;97.36
55757;BME280;41676;44.610;44.078;2023-01-27T23:03:39;100808.25;;;-0.64;96.94
55757;BME280;41676;44.610;44.078;2023-01-27T23:08:40;100794.72;;;-0.71;97.36
55757;BME280;41676;44.610;44.078;2023-01-27T23:13:41;100816.94;;;-0.48;97.61
55757;BME280;41676;44.610;44.078;2023-01-27T23:18:41;100791.00;;;-0.66;96.79
55757;BME280;41676;44.610;44.078;2023-01-27T23:23:42;100727.91;;;-1.05;97.09
55757;BME280;41676;44.610;44.078;2023-01-27T23:28:43;100814.16;;;-0.44;97.50
55757;BME280;41676;44.610;44.078;2023-01-27T23:33:44;100805.25;;;-0.56;98.69
55757;BME280;41676;44.610;44.078;2023-01-27T23:38:46;100765.72;;;-0.80;98.73
55757;BME280;41676;44.610;44.078;2023-01-27T23:43:51;100791.25;;;-0.55;98.73
55757;BME280;41676;44.610;44.078;2023-01-27T23:48:53;100785.38;;;-0.59;98.94
55757;BME280;41676;44.610;44.078;2023-01-27T23:53:54;100735.94;;;-0.92;98.62
55757;BME280;41676;44.610;44.078;2023-01-27T23:58:55;100797.97;;;-0.51;98.76
